^^
Your Local Weather - Clay, NY Station Historical Data
Daily Summary for February 2, 2018 Units:  Both    English   Metric
« Previous Day
Next Day »
Daily Weekly Monthly Yearly Custom
  High: Low: Average:
Temperature: 23.9 °F /  -4.5 °C 10.4 °F /  -12 °C 14.1 °F /  -9.9 °C
Dew Point: 15.7 °F /  -9.1 °C 5.2 °F /  -14.9 °C 8.6 °F /  -13 °C
Humidity: 86% 63% 79%
Wind Speed: 7.0mph /  11.3km/h - 3.3mph /  5.3km/h
Wind Gust: 11.0mph /  17.7km/h - -
Wind- - WNW
Pressure: 30.30 in /  1026 hPa 29.93 in /  1013.4 hPa -
Precipitation: 0.00 in /  0 mm    
Historical Graphs
 
 
Tabular Data for February 2, 2018
Time Temperature Dew Point Pressure Wind Wind Speed Wind Gust Humidity Rainfall Rate (Hourly) solar
00:00 23.7 °F /  -4.6 °C 15.7 °F /  -9.1 °C 29.93in /  1013.4hPa NW 5.0mph /  8km/h 5.0mph /  8km/h 71% 0.00in /  0mm 0 W/m2
00:06 23.8 °F /  -4.6 °C 15.1 °F /  -9.4 °C 29.94in /  1013.8hPa WNW 4.0mph /  6.4km/h 5.0mph /  8km/h 69% 0.00in /  0mm 0 W/m2
00:12 23.9 °F /  -4.5 °C 14.5 °F /  -9.7 °C 29.94in /  1013.8hPa WNW 4.0mph /  6.4km/h 7.0mph /  11.3km/h 67% 0.00in /  0mm 0 W/m2
00:18 23.8 °F /  -4.6 °C 14.4 °F /  -9.8 °C 29.93in /  1013.4hPa WNW 4.0mph /  6.4km/h 8.0mph /  12.9km/h 67% 0.00in /  0mm 0 W/m2
00:24 23.9 °F /  -4.5 °C 14.5 °F /  -9.7 °C 29.94in /  1013.8hPa NW 4.0mph /  6.4km/h 5.0mph /  8km/h 67% 0.00in /  0mm 0 W/m2
00:30 23.8 °F /  -4.6 °C 14.4 °F /  -9.8 °C 29.94in /  1013.8hPa West 4.0mph /  6.4km/h 6.0mph /  9.7km/h 67% 0.00in /  0mm 0 W/m2
00:36 23.7 °F /  -4.6 °C 14.7 °F /  -9.6 °C 29.93in /  1013.4hPa WNW 4.0mph /  6.4km/h 6.0mph /  9.7km/h 68% 0.00in /  0mm 0 W/m2
00:42 23.5 °F /  -4.7 °C 14.8 °F /  -9.6 °C 29.94in /  1013.8hPa WNW 4.0mph /  6.4km/h 5.0mph /  8km/h 69% 0.00in /  0mm 0 W/m2
00:48 23.4 °F /  -4.8 °C 14.7 °F /  -9.6 °C 29.94in /  1013.8hPa NNW 5.0mph /  8km/h 9.0mph /  14.5km/h 69% 0.00in /  0mm 0 W/m2
00:54 23.1 °F /  -4.9 °C 14.8 °F /  -9.6 °C 29.94in /  1013.8hPa NW 5.0mph /  8km/h 5.0mph /  8km/h 70% 0.00in /  0mm 0 W/m2
01:00 23.0 °F /  -5 °C 14.7 °F /  -9.6 °C 29.94in /  1013.8hPa WNW 4.0mph /  6.4km/h 4.0mph /  6.4km/h 70% 0.00in /  0mm 0 W/m2
01:06 22.6 °F /  -5.2 °C 14.3 °F /  -9.8 °C 29.94in /  1013.8hPa NW 5.0mph /  8km/h 7.0mph /  11.3km/h 70% 0.00in /  0mm 0 W/m2
01:12 22.2 °F /  -5.4 °C 14.2 °F /  -9.9 °C 29.95in /  1014.1hPa NW 5.0mph /  8km/h 6.0mph /  9.7km/h 71% 0.00in /  0mm 0 W/m2
01:18 22.0 °F /  -5.6 °C 14.3 °F /  -9.8 °C 29.95in /  1014.1hPa NNW 4.0mph /  6.4km/h 6.0mph /  9.7km/h 72% 0.00in /  0mm 0 W/m2
01:24 22.0 °F /  -5.6 °C 14.3 °F /  -9.8 °C 29.95in /  1014.1hPa NW 3.0mph /  4.8km/h 7.0mph /  11.3km/h 72% 0.00in /  0mm 0 W/m2
01:30 21.8 °F /  -5.7 °C 13.8 °F /  -10.1 °C 29.95in /  1014.1hPa NNW 5.0mph /  8km/h 5.0mph /  8km/h 71% 0.00in /  0mm 0 W/m2
01:36 21.5 °F /  -5.8 °C 13.2 °F /  -10.4 °C 29.94in /  1013.8hPa NW 5.0mph /  8km/h 6.0mph /  9.7km/h 70% 0.00in /  0mm 0 W/m2
01:42 21.4 °F /  -5.9 °C 13.1 °F /  -10.5 °C 29.95in /  1014.1hPa West 4.0mph /  6.4km/h 4.0mph /  6.4km/h 70% 0.00in /  0mm 0 W/m2
01:48 21.4 °F /  -5.9 °C 13.1 °F /  -10.5 °C 29.96in /  1014.4hPa NW 4.0mph /  6.4km/h 6.0mph /  9.7km/h 70% 0.00in /  0mm 0 W/m2
01:54 21.3 °F /  -5.9 °C 13.0 °F /  -10.6 °C 29.96in /  1014.4hPa NW 3.0mph /  4.8km/h 6.0mph /  9.7km/h 70% 0.00in /  0mm 0 W/m2
02:00 21.2 °F /  -6 °C 12.6 °F /  -10.8 °C 29.96in /  1014.4hPa NNW 4.0mph /  6.4km/h 6.0mph /  9.7km/h 69% 0.00in /  0mm 0 W/m2
02:06 21.2 °F /  -6 °C 12.6 °F /  -10.8 °C 29.96in /  1014.4hPa WNW 4.0mph /  6.4km/h 6.0mph /  9.7km/h 69% 0.00in /  0mm 0 W/m2
02:12 21.1 °F /  -6.1 °C 12.5 °F /  -10.8 °C 29.96in /  1014.4hPa NNW 5.0mph /  8km/h 6.0mph /  9.7km/h 69% 0.00in /  0mm 0 W/m2
02:18 20.9 °F /  -6.2 °C 12.3 °F /  -10.9 °C 29.97in /  1014.8hPa NW 5.0mph /  8km/h 7.0mph /  11.3km/h 69% 0.00in /  0mm 0 W/m2
02:24 20.8 °F /  -6.2 °C 11.9 °F /  -11.2 °C 29.97in /  1014.8hPa NNW 5.0mph /  8km/h 8.0mph /  12.9km/h 68% 0.00in /  0mm 0 W/m2
02:30 20.6 °F /  -6.3 °C 11.4 °F /  -11.4 °C 29.97in /  1014.8hPa WNW 4.0mph /  6.4km/h 4.0mph /  6.4km/h 67% 0.00in /  0mm 0 W/m2
02:36 20.4 °F /  -6.4 °C 10.5 °F /  -11.9 °C 29.97in /  1014.8hPa NW 5.0mph /  8km/h 8.0mph /  12.9km/h 65% 0.00in /  0mm 0 W/m2
02:42 20.2 °F /  -6.6 °C 10.3 °F /  -12.1 °C 29.98in /  1015.1hPa NNW 6.0mph /  9.7km/h 6.0mph /  9.7km/h 65% 0.00in /  0mm 0 W/m2
02:48 20.1 °F /  -6.6 °C 9.9 °F /  -12.3 °C 29.98in /  1015.1hPa WNW 5.0mph /  8km/h 6.0mph /  9.7km/h 64% 0.00in /  0mm 0 W/m2
02:54 20.1 °F /  -6.6 °C 9.9 °F /  -12.3 °C 29.97in /  1014.8hPa NNW 4.0mph /  6.4km/h 5.0mph /  8km/h 64% 0.00in /  0mm 0 W/m2
03:00 20.1 °F /  -6.6 °C 9.9 °F /  -12.3 °C 29.97in /  1014.8hPa NW 3.0mph /  4.8km/h 3.0mph /  4.8km/h 64% 0.00in /  0mm 0 W/m2
03:06 20.0 °F /  -6.7 °C 9.4 °F /  -12.6 °C 29.98in /  1015.1hPa NW 4.0mph /  6.4km/h 6.0mph /  9.7km/h 63% 0.00in /  0mm 0 W/m2
03:12 19.9 °F /  -6.7 °C 9.3 °F /  -12.6 °C 29.98in /  1015.1hPa NW 4.0mph /  6.4km/h 5.0mph /  8km/h 63% 0.00in /  0mm 0 W/m2
03:18 19.7 °F /  -6.8 °C 9.5 °F /  -12.5 °C 29.98in /  1015.1hPa NNW 4.0mph /  6.4km/h 5.0mph /  8km/h 64% 0.00in /  0mm 0 W/m2
03:24 19.5 °F /  -6.9 °C 8.9 °F /  -12.8 °C 29.98in /  1015.1hPa NW 5.0mph /  8km/h 6.0mph /  9.7km/h 63% 0.00in /  0mm 0 W/m2
03:30 19.5 °F /  -6.9 °C 9.3 °F /  -12.6 °C 29.98in /  1015.1hPa NNW 4.0mph /  6.4km/h 4.0mph /  6.4km/h 64% 0.00in /  0mm 0 W/m2
03:36 19.5 °F /  -6.9 °C 8.9 °F /  -12.8 °C 29.98in /  1015.1hPa WNW 4.0mph /  6.4km/h 4.0mph /  6.4km/h 63% 0.00in /  0mm 0 W/m2
03:42 19.4 °F /  -7 °C 8.8 °F /  -12.9 °C 29.99in /  1015.5hPa NNW 3.0mph /  4.8km/h 4.0mph /  6.4km/h 63% 0.00in /  0mm 0 W/m2
03:48 19.2 °F /  -7.1 °C 9.4 °F /  -12.6 °C 29.99in /  1015.5hPa NW 4.0mph /  6.4km/h 7.0mph /  11.3km/h 65% 0.00in /  0mm 0 W/m2
03:54 19.0 °F /  -7.2 °C 9.5 °F /  -12.5 °C 29.99in /  1015.5hPa NNW 4.0mph /  6.4km/h 5.0mph /  8km/h 66% 0.00in /  0mm 0 W/m2
04:00 18.9 °F /  -7.3 °C 9.4 °F /  -12.6 °C 29.99in /  1015.5hPa North 4.0mph /  6.4km/h 7.0mph /  11.3km/h 66% 0.00in /  0mm 0 W/m2
04:06 18.8 °F /  -7.3 °C 9.3 °F /  -12.6 °C 29.99in /  1015.5hPa WNW 4.0mph /  6.4km/h 7.0mph /  11.3km/h 66% 0.00in /  0mm 0 W/m2
04:12 18.7 °F /  -7.4 °C 9.6 °F /  -12.4 °C 29.99in /  1015.5hPa NW 3.0mph /  4.8km/h 4.0mph /  6.4km/h 67% 0.00in /  0mm 0 W/m2
04:18 18.6 °F /  -7.4 °C 9.1 °F /  -12.7 °C 29.99in /  1015.5hPa WNW 3.0mph /  4.8km/h 5.0mph /  8km/h 66% 0.00in /  0mm 0 W/m2
04:24 18.4 °F /  -7.6 °C 9.3 °F /  -12.6 °C 29.99in /  1015.5hPa NW 2.0mph /  3.2km/h 4.0mph /  6.4km/h 67% 0.00in /  0mm 0 W/m2
04:30 18.3 °F /  -7.6 °C 8.8 °F /  -12.9 °C 29.99in /  1015.5hPa NW 2.0mph /  3.2km/h 2.0mph /  3.2km/h 66% 0.00in /  0mm 0 W/m2
04:36 18.3 °F /  -7.6 °C 8.8 °F /  -12.9 °C 29.99in /  1015.5hPa NNW 2.0mph /  3.2km/h 3.0mph /  4.8km/h 66% 0.00in /  0mm 0 W/m2
04:42 18.2 °F /  -7.7 °C 9.1 °F /  -12.7 °C 29.99in /  1015.5hPa NNW 2.0mph /  3.2km/h 2.0mph /  3.2km/h 67% 0.00in /  0mm 0 W/m2
04:48 18.2 °F /  -7.7 °C 9.1 °F /  -12.7 °C 29.99in /  1015.5hPa NNW 1.0mph /  1.6km/h 3.0mph /  4.8km/h 67% 0.00in /  0mm 0 W/m2
04:54 18.2 °F /  -7.7 °C 9.4 °F /  -12.6 °C 29.99in /  1015.5hPa NNW 2.0mph /  3.2km/h 2.0mph /  3.2km/h 68% 0.00in /  0mm 0 W/m2
05:00 18.2 °F /  -7.7 °C 9.7 °F /  -12.4 °C 29.99in /  1015.5hPa NW 1.0mph /  1.6km/h 3.0mph /  4.8km/h 69% 0.00in /  0mm 0 W/m2
05:06 18.1 °F /  -7.7 °C 9.6 °F /  -12.4 °C 30.00in /  1015.8hPa NW 1.0mph /  1.6km/h 4.0mph /  6.4km/h 69% 0.00in /  0mm 0 W/m2
05:12 18.1 °F /  -7.7 °C 10.3 °F /  -12.1 °C 30.00in /  1015.8hPa NW 2.0mph /  3.2km/h 2.0mph /  3.2km/h 71% 0.00in /  0mm 0 W/m2
05:18 17.8 °F /  -7.9 °C 10.3 °F /  -12.1 °C 30.00in /  1015.8hPa WNW 2.0mph /  3.2km/h 4.0mph /  6.4km/h 72% 0.00in /  0mm 0 W/m2
05:24 17.8 °F /  -7.9 °C 10.6 °F /  -11.9 °C 30.01in /  1016.1hPa WNW 2.0mph /  3.2km/h 2.0mph /  3.2km/h 73% 0.00in /  0mm 0 W/m2
05:30 17.7 °F /  -7.9 °C 10.8 °F /  -11.8 °C 30.00in /  1015.8hPa WNW 2.0mph /  3.2km/h 2.0mph /  3.2km/h 74% 0.00in /  0mm 0 W/m2
05:36 17.7 °F /  -7.9 °C 11.1 °F /  -11.6 °C 30.00in /  1015.8hPa WNW 1.0mph /  1.6km/h 2.0mph /  3.2km/h 75% 0.00in /  0mm 0 W/m2
05:42 17.5 °F /  -8.1 °C 11.5 °F /  -11.4 °C 30.01in /  1016.1hPa WNW 1.0mph /  1.6km/h 1.0mph /  1.6km/h 77% 0.00in /  0mm 0 W/m2
05:48 17.4 °F /  -8.1 °C 11.7 °F /  -11.3 °C 30.01in /  1016.1hPa WSW 1.0mph /  1.6km/h 2.0mph /  3.2km/h 78% 0.00in /  0mm 0 W/m2
05:54 17.4 °F /  -8.1 °C 12.0 °F /  -11.1 °C 30.01in /  1016.1hPa WSW 1.0mph /  1.6km/h 3.0mph /  4.8km/h 79% 0.00in /  0mm 0 W/m2
06:00 17.3 °F /  -8.2 °C 12.2 °F /  -11 °C 30.01in /  1016.1hPa WSW 1.0mph /  1.6km/h 2.0mph /  3.2km/h 80% 0.00in /  0mm 0 W/m2
06:06 17.3 °F /  -8.2 °C 12.5 °F /  -10.8 °C 30.01in /  1016.1hPa WSW 1.0mph /  1.6km/h 3.0mph /  4.8km/h 81% 0.00in /  0mm 0 W/m2
06:12 17.3 °F /  -8.2 °C 12.7 °F /  -10.7 °C 30.01in /  1016.1hPa WSW 2.0mph /  3.2km/h 2.0mph /  3.2km/h 82% 0.00in /  0mm 0 W/m2
06:18 17.2 °F /  -8.2 °C 12.9 °F /  -10.6 °C 30.01in /  1016.1hPa WNW 2.0mph /  3.2km/h 2.0mph /  3.2km/h 83% 0.00in /  0mm 0 W/m2
06:24 17.2 °F /  -8.2 °C 12.9 °F /  -10.6 °C 30.01in /  1016.1hPa WNW 1.0mph /  1.6km/h 2.0mph /  3.2km/h 83% 0.00in /  0mm 0 W/m2
06:30 17.3 °F /  -8.2 °C 13.3 °F /  -10.4 °C 30.01in /  1016.1hPa West 1.0mph /  1.6km/h 4.0mph /  6.4km/h 84% 0.00in /  0mm 0 W/m2
06:36 17.2 °F /  -8.2 °C 13.2 °F /  -10.4 °C 30.01in /  1016.1hPa NNW 1.0mph /  1.6km/h 4.0mph /  6.4km/h 84% 0.00in /  0mm 0 W/m2
06:42 17.1 °F /  -8.3 °C 13.1 °F /  -10.5 °C 30.01in /  1016.1hPa WSW 2.0mph /  3.2km/h 2.0mph /  3.2km/h 84% 0.00in /  0mm 0 W/m2
06:48 17.2 °F /  -8.2 °C 13.5 °F /  -10.3 °C 30.01in /  1016.1hPa WSW 1.0mph /  1.6km/h 3.0mph /  4.8km/h 85% 0.00in /  0mm 0 W/m2
06:54 17.1 °F /  -8.3 °C 13.4 °F /  -10.3 °C 30.02in /  1016.5hPa WNW 1.0mph /  1.6km/h 2.0mph /  3.2km/h 85% 0.00in /  0mm 0 W/m2
07:00 17.2 °F /  -8.2 °C 13.5 °F /  -10.3 °C 30.02in /  1016.5hPa WNW 1.0mph /  1.6km/h 1.0mph /  1.6km/h 85% 0.00in /  0mm 0 W/m2
07:06 17.2 °F /  -8.2 °C 13.5 °F /  -10.3 °C 30.02in /  1016.5hPa WNW 1.0mph /  1.6km/h 1.0mph /  1.6km/h 85% 0.00in /  0mm 0 W/m2
07:12 17.1 °F /  -8.3 °C 13.6 °F /  -10.2 °C 30.02in /  1016.5hPa WNW 1.0mph /  1.6km/h 2.0mph /  3.2km/h 86% 0.00in /  0mm 0 W/m2
07:18 17.1 °F /  -8.3 °C 13.6 °F /  -10.2 °C 30.02in /  1016.5hPa WNW 1.0mph /  1.6km/h 4.0mph /  6.4km/h 86% 0.00in /  0mm 0 W/m2
07:24 17.0 °F /  -8.3 °C 13.5 °F /  -10.3 °C 30.02in /  1016.5hPa WNW 1.0mph /  1.6km/h 2.0mph /  3.2km/h 86% 0.00in /  0mm 0 W/m2
07:30 16.9 °F /  -8.4 °C 13.4 °F /  -10.3 °C 30.02in /  1016.5hPa WNW 1.0mph /  1.6km/h 2.0mph /  3.2km/h 86% 0.00in /  0mm 0 W/m2
07:36 16.7 °F /  -8.5 °C 13.2 °F /  -10.4 °C 30.02in /  1016.5hPa NNW 1.0mph /  1.6km/h 3.0mph /  4.8km/h 86% 0.00in /  0mm 0 W/m2
07:42 16.5 °F /  -8.6 °C 13.0 °F /  -10.6 °C 30.03in /  1016.8hPa NNW 2.0mph /  3.2km/h 3.0mph /  4.8km/h 86% 0.00in /  0mm 5 W/m2
07:48 16.3 °F /  -8.7 °C 12.8 °F /  -10.7 °C 30.03in /  1016.8hPa NW 3.0mph /  4.8km/h 3.0mph /  4.8km/h 86% 0.00in /  0mm 9 W/m2
07:54 16.3 °F /  -8.7 °C 12.8 °F /  -10.7 °C 30.03in /  1016.8hPa West 2.0mph /  3.2km/h 4.0mph /  6.4km/h 86% 0.00in /  0mm 12 W/m2
08:00 16.3 °F /  -8.7 °C 12.8 °F /  -10.7 °C 30.03in /  1016.8hPa WNW 2.0mph /  3.2km/h 2.0mph /  3.2km/h 86% 0.00in /  0mm 16 W/m2
08:06 16.3 °F /  -8.7 °C 12.8 °F /  -10.7 °C 30.03in /  1016.8hPa WNW 2.0mph /  3.2km/h 4.0mph /  6.4km/h 86% 0.00in /  0mm 18 W/m2
08:12 16.3 °F /  -8.7 °C 12.8 °F /  -10.7 °C 30.03in /  1016.8hPa WNW 3.0mph /  4.8km/h 4.0mph /  6.4km/h 86% 0.00in /  0mm 12 W/m2
08:18 15.4 °F /  -9.2 °C 12.0 °F /  -11.1 °C 30.04in /  1017.2hPa North 4.0mph /  6.4km/h 9.0mph /  14.5km/h 86% 0.00in /  0mm 18 W/m2
08:24 14.5 °F /  -9.7 °C 10.8 °F /  -11.8 °C 30.04in /  1017.2hPa NW 6.0mph /  9.7km/h 6.0mph /  9.7km/h 85% 0.00in /  0mm 21 W/m2
08:30 13.8 °F /  -10.1 °C 10.1 °F /  -12.2 °C 30.06in /  1017.8hPa NW 6.0mph /  9.7km/h 7.0mph /  11.3km/h 85% 0.00in /  0mm 26 W/m2
08:36 13.5 °F /  -10.3 °C 9.8 °F /  -12.3 °C 30.06in /  1017.8hPa North 5.0mph /  8km/h 7.0mph /  11.3km/h 85% 0.00in /  0mm 39 W/m2
08:42 13.1 °F /  -10.5 °C 9.2 °F /  -12.7 °C 30.06in /  1017.8hPa NW 5.0mph /  8km/h 5.0mph /  8km/h 84% 0.00in /  0mm 42 W/m2
08:48 12.9 °F /  -10.6 °C 9.0 °F /  -12.8 °C 30.07in /  1018.2hPa NW 5.0mph /  8km/h 8.0mph /  12.9km/h 84% 0.00in /  0mm 49 W/m2
08:54 12.3 °F /  -10.9 °C 8.1 °F /  -13.3 °C 30.07in /  1018.2hPa NW 6.0mph /  9.7km/h 9.0mph /  14.5km/h 83% 0.00in /  0mm 46 W/m2
09:00 11.7 °F /  -11.3 °C 7.3 °F /  -13.7 °C 30.07in /  1018.2hPa NNW 5.0mph /  8km/h 5.0mph /  8km/h 82% 0.00in /  0mm 39 W/m2
09:06 11.2 °F /  -11.6 °C 6.8 °F /  -14 °C 30.08in /  1018.5hPa NW 7.0mph /  11.3km/h 10.0mph /  16.1km/h 82% 0.00in /  0mm 97 W/m2
09:12 11.1 °F /  -11.6 °C 6.7 °F /  -14.1 °C 30.09in /  1018.8hPa NW 6.0mph /  9.7km/h 11.0mph /  17.7km/h 82% 0.00in /  0mm 206 W/m2
09:18 11.3 °F /  -11.5 °C 6.9 °F /  -13.9 °C 30.10in /  1019.2hPa North 6.0mph /  9.7km/h 11.0mph /  17.7km/h 82% 0.00in /  0mm 271 W/m2
09:24 11.6 °F /  -11.3 °C 6.9 °F /  -13.9 °C 30.10in /  1019.2hPa NNW 5.0mph /  8km/h 6.0mph /  9.7km/h 81% 0.00in /  0mm 188 W/m2
09:30 11.7 °F /  -11.3 °C 6.7 °F /  -14.1 °C 30.10in /  1019.2hPa NW 5.0mph /  8km/h 9.0mph /  14.5km/h 80% 0.00in /  0mm 181 W/m2
09:36 11.7 °F /  -11.3 °C 7.0 °F /  -13.9 °C 30.11in /  1019.5hPa NNW 4.0mph /  6.4km/h 9.0mph /  14.5km/h 81% 0.00in /  0mm 204 W/m2
09:42 11.7 °F /  -11.3 °C 7.0 °F /  -13.9 °C 30.11in /  1019.5hPa North 4.0mph /  6.4km/h 7.0mph /  11.3km/h 81% 0.00in /  0mm 163 W/m2
09:48 11.5 °F /  -11.4 °C 7.1 °F /  -13.8 °C 30.12in /  1019.9hPa NW 5.0mph /  8km/h 7.0mph /  11.3km/h 82% 0.00in /  0mm 165 W/m2
09:54 11.4 °F /  -11.4 °C 7.2 °F /  -13.8 °C 30.12in /  1019.9hPa North 4.0mph /  6.4km/h 8.0mph /  12.9km/h 83% 0.00in /  0mm 188 W/m2
10:00 11.6 °F /  -11.3 °C 7.4 °F /  -13.7 °C 30.12in /  1019.9hPa North 4.0mph /  6.4km/h 4.0mph /  6.4km/h 83% 0.00in /  0mm 193 W/m2
10:06 11.8 °F /  -11.2 °C 7.9 °F /  -13.4 °C 30.12in /  1019.9hPa West 5.0mph /  8km/h 6.0mph /  9.7km/h 84% 0.00in /  0mm 269 W/m2
10:12 12.0 °F /  -11.1 °C 8.1 °F /  -13.3 °C 30.12in /  1019.9hPa NNE 5.0mph /  8km/h 8.0mph /  12.9km/h 84% 0.00in /  0mm 163 W/m2
10:18 11.8 °F /  -11.2 °C 7.6 °F /  -13.6 °C 30.13in /  1020.2hPa WNW 5.0mph /  8km/h 9.0mph /  14.5km/h 83% 0.00in /  0mm 151 W/m2
10:24 12.1 °F /  -11.1 °C 7.9 °F /  -13.4 °C 30.13in /  1020.2hPa WNW 5.0mph /  8km/h 8.0mph /  12.9km/h 83% 0.00in /  0mm 221 W/m2
10:30 12.8 °F /  -10.7 °C 8.9 °F /  -12.8 °C 30.13in /  1020.2hPa NNW 4.0mph /  6.4km/h 7.0mph /  11.3km/h 84% 0.00in /  0mm 237 W/m2
10:36 12.3 °F /  -10.9 °C 8.1 °F /  -13.3 °C 30.14in /  1020.5hPa NNW 4.0mph /  6.4km/h 10.0mph /  16.1km/h 83% 0.00in /  0mm 169 W/m2
10:42 11.8 °F /  -11.2 °C 7.6 °F /  -13.6 °C 30.14in /  1020.5hPa NNE 5.0mph /  8km/h 7.0mph /  11.3km/h 83% 0.00in /  0mm 294 W/m2
10:48 11.6 °F /  -11.3 °C 7.2 °F /  -13.8 °C 30.14in /  1020.5hPa NNE 6.0mph /  9.7km/h 7.0mph /  11.3km/h 82% 0.00in /  0mm 181 W/m2
10:54 11.9 °F /  -11.2 °C 7.5 °F /  -13.6 °C 30.14in /  1020.5hPa North 5.0mph /  8km/h 6.0mph /  9.7km/h 82% 0.00in /  0mm 244 W/m2
11:00 11.7 °F /  -11.3 °C 7.3 °F /  -13.7 °C 30.14in /  1020.5hPa NW 5.0mph /  8km/h 7.0mph /  11.3km/h 82% 0.00in /  0mm 253 W/m2
11:06 11.3 °F /  -11.5 °C 6.9 °F /  -13.9 °C 30.15in /  1020.9hPa NNW 7.0mph /  11.3km/h 7.0mph /  11.3km/h 82% 0.00in /  0mm 163 W/m2
11:12 11.2 °F /  -11.6 °C 6.8 °F /  -14 °C 30.15in /  1020.9hPa NW 6.0mph /  9.7km/h 6.0mph /  9.7km/h 82% 0.00in /  0mm 255 W/m2
11:18 11.4 °F /  -11.4 °C 7.2 °F /  -13.8 °C 30.15in /  1020.9hPa NW 4.0mph /  6.4km/h 6.0mph /  9.7km/h 83% 0.00in /  0mm 181 W/m2
11:24 11.5 °F /  -11.4 °C 7.1 °F /  -13.8 °C 30.15in /  1020.9hPa NW 5.0mph /  8km/h 7.0mph /  11.3km/h 82% 0.00in /  0mm 195 W/m2
11:30 11.3 °F /  -11.5 °C 6.9 °F /  -13.9 °C 30.16in /  1021.2hPa NW 5.0mph /  8km/h 5.0mph /  8km/h 82% 0.00in /  0mm 262 W/m2
11:36 11.3 °F /  -11.5 °C 6.6 °F /  -14.1 °C 30.16in /  1021.2hPa WNW 4.0mph /  6.4km/h 6.0mph /  9.7km/h 81% 0.00in /  0mm 422 W/m2
11:42 11.5 °F /  -11.4 °C 6.5 °F /  -14.2 °C 30.16in /  1021.2hPa WNW 5.0mph /  8km/h 6.0mph /  9.7km/h 80% 0.00in /  0mm 278 W/m2
11:48 11.1 °F /  -11.6 °C 6.1 °F /  -14.4 °C 30.16in /  1021.2hPa NNW 5.0mph /  8km/h 7.0mph /  11.3km/h 80% 0.00in /  0mm 309 W/m2
11:54 10.9 °F /  -11.7 °C 5.9 °F /  -14.5 °C 30.16in /  1021.2hPa NNW 5.0mph /  8km/h 7.0mph /  11.3km/h 80% 0.00in /  0mm 199 W/m2
12:00 10.5 °F /  -11.9 °C 5.5 °F /  -14.7 °C 30.16in /  1021.2hPa NW 4.0mph /  6.4km/h 7.0mph /  11.3km/h 80% 0.00in /  0mm 260 W/m2
12:06 10.7 °F /  -11.8 °C 5.7 °F /  -14.6 °C 30.16in /  1021.2hPa NW 4.0mph /  6.4km/h 7.0mph /  11.3km/h 80% 0.00in /  0mm 246 W/m2
12:12 10.4 °F /  -12 °C 5.2 °F /  -14.9 °C 30.16in /  1021.2hPa West 5.0mph /  8km/h 6.0mph /  9.7km/h 79% 0.00in /  0mm 216 W/m2
12:18 10.9 °F /  -11.7 °C 5.9 °F /  -14.5 °C 30.16in /  1021.2hPa NW 4.0mph /  6.4km/h 6.0mph /  9.7km/h 80% 0.00in /  0mm 320 W/m2
12:24 11.2 °F /  -11.6 °C 6.0 °F /  -14.4 °C 30.16in /  1021.2hPa WNW 4.0mph /  6.4km/h 5.0mph /  8km/h 79% 0.00in /  0mm 258 W/m2
12:30 11.3 °F /  -11.5 °C 5.8 °F /  -14.6 °C 30.16in /  1021.2hPa WNW 4.0mph /  6.4km/h 4.0mph /  6.4km/h 78% 0.00in /  0mm 306 W/m2
12:36 11.4 °F /  -11.4 °C 5.6 °F /  -14.7 °C 30.17in /  1021.6hPa NW 4.0mph /  6.4km/h 10.0mph /  16.1km/h 77% 0.00in /  0mm 281 W/m2
12:42 11.5 °F /  -11.4 °C 5.4 °F /  -14.8 °C 30.17in /  1021.6hPa NW 4.0mph /  6.4km/h 4.0mph /  6.4km/h 76% 0.00in /  0mm 339 W/m2
12:48 11.6 °F /  -11.3 °C 5.2 °F /  -14.9 °C 30.17in /  1021.6hPa NNW 4.0mph /  6.4km/h 7.0mph /  11.3km/h 75% 0.00in /  0mm 357 W/m2
12:54 11.5 °F /  -11.4 °C 5.4 °F /  -14.8 °C 30.17in /  1021.6hPa NNW 4.0mph /  6.4km/h 9.0mph /  14.5km/h 76% 0.00in /  0mm 288 W/m2
13:00 12.0 °F /  -11.1 °C 6.2 °F /  -14.3 °C 30.17in /  1021.6hPa NW 3.0mph /  4.8km/h 3.0mph /  4.8km/h 77% 0.00in /  0mm 241 W/m2
13:06 11.6 °F /  -11.3 °C 5.8 °F /  -14.6 °C 30.17in /  1021.6hPa NNW 3.0mph /  4.8km/h 4.0mph /  6.4km/h 77% 0.00in /  0mm 234 W/m2
13:12 11.6 °F /  -11.3 °C 6.1 °F /  -14.4 °C 30.17in /  1021.6hPa NW 4.0mph /  6.4km/h 4.0mph /  6.4km/h 78% 0.00in /  0mm 223 W/m2
13:18 11.3 °F /  -11.5 °C 6.1 °F /  -14.4 °C 30.17in /  1021.6hPa NW 5.0mph /  8km/h 9.0mph /  14.5km/h 79% 0.00in /  0mm 190 W/m2
13:24 11.2 °F /  -11.6 °C 6.0 °F /  -14.4 °C 30.17in /  1021.6hPa WNW 5.0mph /  8km/h 5.0mph /  8km/h 79% 0.00in /  0mm 179 W/m2
13:30 11.2 °F /  -11.6 °C 6.2 °F /  -14.3 °C 30.17in /  1021.6hPa WNW 4.0mph /  6.4km/h 4.0mph /  6.4km/h 80% 0.00in /  0mm 137 W/m2
13:36 11.0 °F /  -11.7 °C 6.3 °F /  -14.3 °C 30.17in /  1021.6hPa WNW 4.0mph /  6.4km/h 4.0mph /  6.4km/h 81% 0.00in /  0mm 116 W/m2
13:42 10.9 °F /  -11.7 °C 6.5 °F /  -14.2 °C 30.18in /  1021.9hPa NW 4.0mph /  6.4km/h 4.0mph /  6.4km/h 82% 0.00in /  0mm 172 W/m2
13:48 11.0 °F /  -11.7 °C 6.8 °F /  -14 °C 30.18in /  1021.9hPa NW 5.0mph /  8km/h 5.0mph /  8km/h 83% 0.00in /  0mm 193 W/m2
13:54 11.2 °F /  -11.6 °C 7.0 °F /  -13.9 °C 30.18in /  1021.9hPa NW 4.0mph /  6.4km/h 7.0mph /  11.3km/h 83% 0.00in /  0mm 142 W/m2
14:00 11.4 °F /  -11.4 °C 7.5 °F /  -13.6 °C 30.18in /  1021.9hPa WNW 3.0mph /  4.8km/h 4.0mph /  6.4km/h 84% 0.00in /  0mm 134 W/m2
14:06 11.5 °F /  -11.4 °C 7.6 °F /  -13.6 °C 30.18in /  1021.9hPa NW 4.0mph /  6.4km/h 8.0mph /  12.9km/h 84% 0.00in /  0mm 199 W/m2
14:12 11.5 °F /  -11.4 °C 7.1 °F /  -13.8 °C 30.17in /  1021.6hPa West 6.0mph /  9.7km/h 8.0mph /  12.9km/h 82% 0.00in /  0mm 156 W/m2
14:18 11.4 °F /  -11.4 °C 6.4 °F /  -14.2 °C 30.18in /  1021.9hPa NW 6.0mph /  9.7km/h 9.0mph /  14.5km/h 80% 0.00in /  0mm 144 W/m2
14:24 11.5 °F /  -11.4 °C 6.5 °F /  -14.2 °C 30.18in /  1021.9hPa WNW 5.0mph /  8km/h 6.0mph /  9.7km/h 80% 0.00in /  0mm 118 W/m2
14:30 11.6 °F /  -11.3 °C 6.3 °F /  -14.3 °C 30.19in /  1022.2hPa WNW 5.0mph /  8km/h 5.0mph /  8km/h 79% 0.00in /  0mm 123 W/m2
14:36 11.5 °F /  -11.4 °C 6.2 °F /  -14.3 °C 30.19in /  1022.2hPa WNW 6.0mph /  9.7km/h 7.0mph /  11.3km/h 79% 0.00in /  0mm 105 W/m2
14:42 11.4 °F /  -11.4 °C 6.2 °F /  -14.3 °C 30.19in /  1022.2hPa WNW 5.0mph /  8km/h 6.0mph /  9.7km/h 79% 0.00in /  0mm 97 W/m2
14:48 11.5 °F /  -11.4 °C 6.5 °F /  -14.2 °C 30.19in /  1022.2hPa WNW 4.0mph /  6.4km/h 6.0mph /  9.7km/h 80% 0.00in /  0mm 81 W/m2
14:54 11.5 °F /  -11.4 °C 6.5 °F /  -14.2 °C 30.20in /  1022.6hPa NW 4.0mph /  6.4km/h 4.0mph /  6.4km/h 80% 0.00in /  0mm 121 W/m2
15:00 11.4 °F /  -11.4 °C 6.4 °F /  -14.2 °C 30.20in /  1022.6hPa NW 5.0mph /  8km/h 5.0mph /  8km/h 80% 0.00in /  0mm 121 W/m2
15:06 11.4 °F /  -11.4 °C 6.4 °F /  -14.2 °C 30.20in /  1022.6hPa WNW 5.0mph /  8km/h 6.0mph /  9.7km/h 80% 0.00in /  0mm 113 W/m2
15:12 11.4 °F /  -11.4 °C 6.2 °F /  -14.3 °C 30.20in /  1022.6hPa NW 4.0mph /  6.4km/h 5.0mph /  8km/h 79% 0.00in /  0mm 98 W/m2
15:18 11.2 °F /  -11.6 °C 6.2 °F /  -14.3 °C 30.20in /  1022.6hPa WNW 4.0mph /  6.4km/h 7.0mph /  11.3km/h 80% 0.00in /  0mm 93 W/m2
15:24 11.0 °F /  -11.7 °C 6.0 °F /  -14.4 °C 30.21in /  1022.9hPa WNW 5.0mph /  8km/h 5.0mph /  8km/h 80% 0.00in /  0mm 95 W/m2
15:30 11.0 °F /  -11.7 °C 6.3 °F /  -14.3 °C 30.21in /  1022.9hPa WNW 4.0mph /  6.4km/h 4.0mph /  6.4km/h 81% 0.00in /  0mm 109 W/m2
15:36 11.1 °F /  -11.6 °C 6.4 °F /  -14.2 °C 30.21in /  1022.9hPa WNW 5.0mph /  8km/h 5.0mph /  8km/h 81% 0.00in /  0mm 100 W/m2
15:42 11.2 °F /  -11.6 °C 6.0 °F /  -14.4 °C 30.21in /  1022.9hPa WNW 5.0mph /  8km/h 7.0mph /  11.3km/h 79% 0.00in /  0mm 70 W/m2
15:48 11.1 °F /  -11.6 °C 5.6 °F /  -14.7 °C 30.21in /  1022.9hPa NW 5.0mph /  8km/h 7.0mph /  11.3km/h 78% 0.00in /  0mm 63 W/m2
15:54 11.1 °F /  -11.6 °C 5.6 °F /  -14.7 °C 30.22in /  1023.2hPa WNW 5.0mph /  8km/h 5.0mph /  8km/h 78% 0.00in /  0mm 49 W/m2
16:00 11.2 °F /  -11.6 °C 5.7 °F /  -14.6 °C 30.22in /  1023.2hPa WNW 4.0mph /  6.4km/h 4.0mph /  6.4km/h 78% 0.00in /  0mm 44 W/m2
16:06 11.2 °F /  -11.6 °C 5.7 °F /  -14.6 °C 30.22in /  1023.2hPa NW 4.0mph /  6.4km/h 4.0mph /  6.4km/h 78% 0.00in /  0mm 42 W/m2
16:12 11.2 °F /  -11.6 °C 5.4 °F /  -14.8 °C 30.22in /  1023.2hPa WNW 4.0mph /  6.4km/h 6.0mph /  9.7km/h 77% 0.00in /  0mm 33 W/m2
16:18 11.1 °F /  -11.6 °C 5.6 °F /  -14.7 °C 30.22in /  1023.2hPa WNW 4.0mph /  6.4km/h 6.0mph /  9.7km/h 78% 0.00in /  0mm 35 W/m2
16:24 11.1 °F /  -11.6 °C 5.6 °F /  -14.7 °C 30.23in /  1023.6hPa WNW 5.0mph /  8km/h 7.0mph /  11.3km/h 78% 0.00in /  0mm 28 W/m2
16:30 11.1 °F /  -11.6 °C 5.3 °F /  -14.8 °C 30.23in /  1023.6hPa NW 5.0mph /  8km/h 8.0mph /  12.9km/h 77% 0.00in /  0mm 28 W/m2
16:36 11.2 °F /  -11.6 °C 5.4 °F /  -14.8 °C 30.23in /  1023.6hPa NW 4.0mph /  6.4km/h 8.0mph /  12.9km/h 77% 0.00in /  0mm 28 W/m2
16:42 11.3 °F /  -11.5 °C 5.2 °F /  -14.9 °C 30.23in /  1023.6hPa WNW 4.0mph /  6.4km/h 5.0mph /  8km/h 76% 0.00in /  0mm 26 W/m2
16:48 11.3 °F /  -11.5 °C 5.2 °F /  -14.9 °C 30.23in /  1023.6hPa WNW 3.0mph /  4.8km/h 5.0mph /  8km/h 76% 0.00in /  0mm 18 W/m2
16:54 11.2 °F /  -11.6 °C 5.4 °F /  -14.8 °C 30.24in /  1023.9hPa WNW 3.0mph /  4.8km/h 6.0mph /  9.7km/h 77% 0.00in /  0mm 12 W/m2
17:00 11.0 °F /  -11.7 °C 5.5 °F /  -14.7 °C 30.24in /  1023.9hPa WNW 4.0mph /  6.4km/h 4.0mph /  6.4km/h 78% 0.00in /  0mm 9 W/m2
17:06 10.9 °F /  -11.7 °C 5.7 °F /  -14.6 °C 30.24in /  1023.9hPa WNW 4.0mph /  6.4km/h 5.0mph /  8km/h 79% 0.00in /  0mm 5 W/m2
17:12 10.8 °F /  -11.8 °C 6.1 °F /  -14.4 °C 30.24in /  1023.9hPa WNW 4.0mph /  6.4km/h 4.0mph /  6.4km/h 81% 0.00in /  0mm 0 W/m2
17:18 10.8 °F /  -11.8 °C 6.1 °F /  -14.4 °C 30.24in /  1023.9hPa WNW 3.0mph /  4.8km/h 5.0mph /  8km/h 81% 0.00in /  0mm 0 W/m2
17:24 10.8 °F /  -11.8 °C 6.4 °F /  -14.2 °C 30.24in /  1023.9hPa West 3.0mph /  4.8km/h 4.0mph /  6.4km/h 82% 0.00in /  0mm 0 W/m2
17:30 10.9 °F /  -11.7 °C 6.5 °F /  -14.2 °C 30.24in /  1023.9hPa WNW 3.0mph /  4.8km/h 4.0mph /  6.4km/h 82% 0.00in /  0mm 0 W/m2
17:36 10.9 °F /  -11.7 °C 6.5 °F /  -14.2 °C 30.24in /  1023.9hPa West 3.0mph /  4.8km/h 4.0mph /  6.4km/h 82% 0.00in /  0mm 0 W/m2
17:42 11.0 °F /  -11.7 °C 6.3 °F /  -14.3 °C 30.24in /  1023.9hPa West 3.0mph /  4.8km/h 11.0mph /  17.7km/h 81% 0.00in /  0mm 0 W/m2
17:48 11.1 °F /  -11.6 °C 6.4 °F /  -14.2 °C 30.25in /  1024.3hPa WNW 3.0mph /  4.8km/h 11.0mph /  17.7km/h 81% 0.00in /  0mm 0 W/m2
17:54 11.1 °F /  -11.6 °C 6.4 °F /  -14.2 °C 30.25in /  1024.3hPa West 3.0mph /  4.8km/h 4.0mph /  6.4km/h 81% 0.00in /  0mm 0 W/m2
18:00 11.1 °F /  -11.6 °C 6.4 °F /  -14.2 °C 30.25in /  1024.3hPa West 3.0mph /  4.8km/h 7.0mph /  11.3km/h 81% 0.00in /  0mm 0 W/m2
18:06 11.1 °F /  -11.6 °C 6.4 °F /  -14.2 °C 30.26in /  1024.6hPa WNW 3.0mph /  4.8km/h 7.0mph /  11.3km/h 81% 0.00in /  0mm 0 W/m2
18:12 11.1 °F /  -11.6 °C 6.7 °F /  -14.1 °C 30.26in /  1024.6hPa West 3.0mph /  4.8km/h 3.0mph /  4.8km/h 82% 0.00in /  0mm 0 W/m2
18:18 11.0 °F /  -11.7 °C 6.6 °F /  -14.1 °C 30.26in /  1024.6hPa SW 3.0mph /  4.8km/h 4.0mph /  6.4km/h 82% 0.00in /  0mm 0 W/m2
18:24 11.0 °F /  -11.7 °C 6.6 °F /  -14.1 °C 30.26in /  1024.6hPa WSW 2.0mph /  3.2km/h 3.0mph /  4.8km/h 82% 0.00in /  0mm 0 W/m2
18:30 10.9 °F /  -11.7 °C 6.5 °F /  -14.2 °C 30.26in /  1024.6hPa WSW 3.0mph /  4.8km/h 3.0mph /  4.8km/h 82% 0.00in /  0mm 0 W/m2
18:36 10.7 °F /  -11.8 °C 6.3 °F /  -14.3 °C 30.26in /  1024.6hPa WSW 3.0mph /  4.8km/h 4.0mph /  6.4km/h 82% 0.00in /  0mm 0 W/m2
18:42 10.7 °F /  -11.8 °C 6.3 °F /  -14.3 °C 30.27in /  1024.9hPa WSW 3.0mph /  4.8km/h 3.0mph /  4.8km/h 82% 0.00in /  0mm 0 W/m2
18:48 10.7 °F /  -11.8 °C 6.6 °F /  -14.1 °C 30.27in /  1024.9hPa WSW 3.0mph /  4.8km/h 3.0mph /  4.8km/h 83% 0.00in /  0mm 0 W/m2
18:54 10.7 °F /  -11.8 °C 6.6 °F /  -14.1 °C 30.27in /  1024.9hPa West 2.0mph /  3.2km/h 3.0mph /  4.8km/h 83% 0.00in /  0mm 0 W/m2
19:00 10.7 °F /  -11.8 °C 6.6 °F /  -14.1 °C 30.27in /  1024.9hPa West 3.0mph /  4.8km/h 4.0mph /  6.4km/h 83% 0.00in /  0mm 0 W/m2
19:06 10.7 °F /  -11.8 °C 6.6 °F /  -14.1 °C 30.27in /  1024.9hPa WSW 3.0mph /  4.8km/h 4.0mph /  6.4km/h 83% 0.00in /  0mm 0 W/m2
19:12 10.6 °F /  -11.9 °C 6.5 °F /  -14.2 °C 30.27in /  1024.9hPa SW 3.0mph /  4.8km/h 4.0mph /  6.4km/h 83% 0.00in /  0mm 0 W/m2
19:18 10.7 °F /  -11.8 °C 6.6 °F /  -14.1 °C 30.28in /  1025.3hPa WSW 4.0mph /  6.4km/h 6.0mph /  9.7km/h 83% 0.00in /  0mm 0 W/m2
19:24 10.7 °F /  -11.8 °C 6.6 °F /  -14.1 °C 30.28in /  1025.3hPa NW 3.0mph /  4.8km/h 4.0mph /  6.4km/h 83% 0.00in /  0mm 0 W/m2
19:30 10.7 °F /  -11.8 °C 6.6 °F /  -14.1 °C 30.28in /  1025.3hPa West 2.0mph /  3.2km/h 4.0mph /  6.4km/h 83% 0.00in /  0mm 0 W/m2
19:36 10.7 °F /  -11.8 °C 6.6 °F /  -14.1 °C 30.29in /  1025.6hPa West 2.0mph /  3.2km/h 4.0mph /  6.4km/h 83% 0.00in /  0mm 0 W/m2
19:42 10.7 °F /  -11.8 °C 6.6 °F /  -14.1 °C 30.29in /  1025.6hPa WNW 2.0mph /  3.2km/h 3.0mph /  4.8km/h 83% 0.00in /  0mm 0 W/m2
19:48 10.7 °F /  -11.8 °C 6.8 °F /  -14 °C 30.29in /  1025.6hPa WNW 2.0mph /  3.2km/h 3.0mph /  4.8km/h 84% 0.00in /  0mm 0 W/m2
19:54 10.8 °F /  -11.8 °C 6.9 °F /  -13.9 °C 30.29in /  1025.6hPa West 2.0mph /  3.2km/h 3.0mph /  4.8km/h 84% 0.00in /  0mm 0 W/m2
20:00 10.9 °F /  -11.7 °C 7.0 °F /  -13.9 °C 30.29in /  1025.6hPa WSW 3.0mph /  4.8km/h 3.0mph /  4.8km/h 84% 0.00in /  0mm 0 W/m2
20:06 10.9 °F /  -11.7 °C 7.0 °F /  -13.9 °C 30.29in /  1025.6hPa WSW 3.0mph /  4.8km/h 3.0mph /  4.8km/h 84% 0.00in /  0mm 0 W/m2
20:12 10.9 °F /  -11.7 °C 6.8 °F /  -14 °C 30.29in /  1025.6hPa WSW 2.0mph /  3.2km/h 3.0mph /  4.8km/h 83% 0.00in /  0mm 0 W/m2
20:18 10.9 °F /  -11.7 °C 6.8 °F /  -14 °C 30.29in /  1025.6hPa WSW 1.0mph /  1.6km/h 3.0mph /  4.8km/h 83% 0.00in /  0mm 0 W/m2
20:24 10.9 °F /  -11.7 °C 7.0 °F /  -13.9 °C 30.29in /  1025.6hPa WSW 1.0mph /  1.6km/h 2.0mph /  3.2km/h 84% 0.00in /  0mm 0 W/m2
20:30 10.9 °F /  -11.7 °C 6.8 °F /  -14 °C 30.29in /  1025.6hPa West 1.0mph /  1.6km/h 1.0mph /  1.6km/h 83% 0.00in /  0mm 0 W/m2
20:36 10.8 °F /  -11.8 °C 6.7 °F /  -14.1 °C 30.29in /  1025.6hPa SW 1.0mph /  1.6km/h 3.0mph /  4.8km/h 83% 0.00in /  0mm 0 W/m2
20:42 10.7 °F /  -11.8 °C 6.6 °F /  -14.1 °C 30.30in /  1026hPa WSW 2.0mph /  3.2km/h 2.0mph /  3.2km/h 83% 0.00in /  0mm 0 W/m2
20:48 10.7 °F /  -11.8 °C 6.6 °F /  -14.1 °C 30.30in /  1026hPa WSW 2.0mph /  3.2km/h 3.0mph /  4.8km/h 83% 0.00in /  0mm 0 W/m2
20:54 10.7 °F /  -11.8 °C 6.6 °F /  -14.1 °C 30.30in /  1026hPa WSW 1.0mph /  1.6km/h 2.0mph /  3.2km/h 83% 0.00in /  0mm 0 W/m2
21:00 10.8 °F /  -11.8 °C 6.7 °F /  -14.1 °C 30.30in /  1026hPa WSW 1.0mph /  1.6km/h 1.0mph /  1.6km/h 83% 0.00in /  0mm 0 W/m2
21:06 10.9 °F /  -11.7 °C 6.8 °F /  -14 °C 30.30in /  1026hPa West 1.0mph /  1.6km/h 2.0mph /  3.2km/h 83% 0.00in /  0mm 0 W/m2
21:12 11.0 °F /  -11.7 °C 6.8 °F /  -14 °C 30.30in /  1026hPa West 1.0mph /  1.6km/h 1.0mph /  1.6km/h 83% 0.00in /  0mm 0 W/m2
21:18 11.1 °F /  -11.6 °C 6.9 °F /  -13.9 °C 30.30in /  1026hPa WSW 1.0mph /  1.6km/h 4.0mph /  6.4km/h 83% 0.00in /  0mm 0 W/m2
21:24 11.1 °F /  -11.6 °C 7.2 °F /  -13.8 °C 30.30in /  1026hPa WSW 1.0mph /  1.6km/h 2.0mph /  3.2km/h 84% 0.00in /  0mm 0 W/m2
21:30 11.2 °F /  -11.6 °C 7.3 °F /  -13.7 °C 30.30in /  1026hPa SW 1.0mph /  1.6km/h 1.0mph /  1.6km/h 84% 0.00in /  0mm 0 W/m2
21:36 11.2 °F /  -11.6 °C 7.3 °F /  -13.7 °C 30.29in /  1025.6hPa SW 1.0mph /  1.6km/h 2.0mph /  3.2km/h 84% 0.00in /  0mm 0 W/m2
21:42 11.1 °F /  -11.6 °C 7.2 °F /  -13.8 °C 30.29in /  1025.6hPa WSW 2.0mph /  3.2km/h 4.0mph /  6.4km/h 84% 0.00in /  0mm 0 W/m2
21:48 11.1 °F /  -11.6 °C 7.2 °F /  -13.8 °C 30.29in /  1025.6hPa WSW 2.0mph /  3.2km/h 4.0mph /  6.4km/h 84% 0.00in /  0mm 0 W/m2
21:54 11.0 °F /  -11.7 °C 7.4 °F /  -13.7 °C 30.29in /  1025.6hPa West 2.0mph /  3.2km/h 4.0mph /  6.4km/h 85% 0.00in /  0mm 0 W/m2
22:00 11.1 °F /  -11.6 °C 7.5 °F /  -13.6 °C 30.29in /  1025.6hPa SW 2.0mph /  3.2km/h 4.0mph /  6.4km/h 85% 0.00in /  0mm 0 W/m2
22:06 11.1 °F /  -11.6 °C 7.5 °F /  -13.6 °C 30.30in /  1026hPa SW 1.0mph /  1.6km/h 4.0mph /  6.4km/h 85% 0.00in /  0mm 0 W/m2
22:12 11.1 °F /  -11.6 °C 7.5 °F /  -13.6 °C 30.30in /  1026hPa WSW 2.0mph /  3.2km/h 2.0mph /  3.2km/h 85% 0.00in /  0mm 0 W/m2
22:18 11.1 °F /  -11.6 °C 7.5 °F /  -13.6 °C 30.30in /  1026hPa WSW 3.0mph /  4.8km/h 5.0mph /  8km/h 85% 0.00in /  0mm 0 W/m2
22:24 11.1 °F /  -11.6 °C 7.5 °F /  -13.6 °C 30.30in /  1026hPa WSW 2.0mph /  3.2km/h 5.0mph /  8km/h 85% 0.00in /  0mm 0 W/m2
22:30 11.2 °F /  -11.6 °C 7.6 °F /  -13.6 °C 30.30in /  1026hPa WSW 2.0mph /  3.2km/h 2.0mph /  3.2km/h 85% 0.00in /  0mm 0 W/m2
22:36 11.2 °F /  -11.6 °C 7.8 °F /  -13.4 °C 30.29in /  1025.6hPa WSW 1.0mph /  1.6km/h 2.0mph /  3.2km/h 86% 0.00in /  0mm 0 W/m2
22:42 11.3 °F /  -11.5 °C 7.9 °F /  -13.4 °C 30.29in /  1025.6hPa WSW 1.0mph /  1.6km/h 3.0mph /  4.8km/h 86% 0.00in /  0mm 0 W/m2
22:48 11.2 °F /  -11.6 °C 7.8 °F /  -13.4 °C 30.29in /  1025.6hPa SW 2.0mph /  3.2km/h 3.0mph /  4.8km/h 86% 0.00in /  0mm 0 W/m2
22:54 11.2 °F /  -11.6 °C 7.8 °F /  -13.4 °C 30.29in /  1025.6hPa West 2.0mph /  3.2km/h 3.0mph /  4.8km/h 86% 0.00in /  0mm 0 W/m2
23:00 11.2 °F /  -11.6 °C 7.8 °F /  -13.4 °C 30.29in /  1025.6hPa SW 2.0mph /  3.2km/h 3.0mph /  4.8km/h 86% 0.00in /  0mm 0 W/m2
23:06 11.1 °F /  -11.6 °C 7.7 °F /  -13.5 °C 30.29in /  1025.6hPa SW 2.0mph /  3.2km/h 3.0mph /  4.8km/h 86% 0.00in /  0mm 0 W/m2
23:12 11.1 °F /  -11.6 °C 7.7 °F /  -13.5 °C 30.29in /  1025.6hPa SW 1.0mph /  1.6km/h 2.0mph /  3.2km/h 86% 0.00in /  0mm 0 W/m2
23:18 11.1 °F /  -11.6 °C 7.7 °F /  -13.5 °C 30.29in /  1025.6hPa SW 1.0mph /  1.6km/h 2.0mph /  3.2km/h 86% 0.00in /  0mm 0 W/m2
23:24 11.1 °F /  -11.6 °C 7.7 °F /  -13.5 °C 30.29in /  1025.6hPa SW 1.0mph /  1.6km/h 2.0mph /  3.2km/h 86% 0.00in /  0mm 0 W/m2
23:30 11.1 °F /  -11.6 °C 7.7 °F /  -13.5 °C 30.28in /  1025.3hPa SW 1.0mph /  1.6km/h 1.0mph /  1.6km/h 86% 0.00in /  0mm 0 W/m2
23:36 11.1 °F /  -11.6 °C 7.7 °F /  -13.5 °C 30.28in /  1025.3hPa SW 1.0mph /  1.6km/h 1.0mph /  1.6km/h 86% 0.00in /  0mm 0 W/m2
23:42 11.1 °F /  -11.6 °C 7.7 °F /  -13.5 °C 30.28in /  1025.3hPa SW 1.0mph /  1.6km/h 1.0mph /  1.6km/h 86% 0.00in /  0mm 0 W/m2
23:48 11.1 °F /  -11.6 °C 7.5 °F /  -13.6 °C 30.28in /  1025.3hPa West 1.0mph /  1.6km/h 2.0mph /  3.2km/h 85% 0.00in /  0mm 0 W/m2
23:54 11.1 °F /  -11.6 °C 7.5 °F /  -13.6 °C 30.27in /  1024.9hPa West 1.0mph /  1.6km/h 4.0mph /  6.4km/h 85% 0.00in /  0mm 0 W/m2
Country Meadow, Clay, NY, USA
Compliments of Weather Underground - 2 mb